Time;durP1;ratioP1;P1;durP2;ratioP2;P2;SDS_P1;SDS_P2;PMS_P1;PMS_P2;Temp;Humidity;BMP_temperature;BMP_pressure;BME280_temperature;BME280_humidity;BME280_pressure;Samples;Min_cycle;Max_cycle;Signal;HPM_P1;HPM_P2
2021/07/11 06:33:42;;;;;;;3.42;2.45;;;;;;;;;;6120199;22;2778606;-66
2021/07/11 06:36:09;;;;;;;4.43;2.80;;;;;;;;;;6244635;23;20015;-64
2021/07/11 06:38:35;;;;;;;3.78;2.67;;;;;;;;;;6246057;23;20421;-65
2021/07/11 06:41:01;;;;;;;4.85;2.60;;;;;;;;;;6244705;23;20008;-64
2021/07/11 06:43:27;;;;;;;3.80;3.08;;;;;;;;;;6246738;23;20000;-66
2021/07/11 06:45:54;;;;;;;3.53;2.72;;;;;;;;;;6247438;23;20075;-65
2021/07/11 06:48:20;;;;;;;3.85;2.90;;;;;;;;;;6244738;23;20019;-66
2021/07/11 06:50:46;;;;;;;4.20;3.08;;;;;;;;;;6246343;23;20078;-66
2021/07/11 06:53:13;;;;;;;5.72;3.20;;;;;;;;;;6247067;23;20264;-63
2021/07/11 06:55:39;;;;;;;4.43;2.80;;;;;;;;;;6246136;23;20000;-64
2021/07/11 06:58:05;;;;;;;4.93;3.20;;;;;;;;;;6246192;23;20325;-65
2021/07/11 07:00:31;;;;;;;6.32;3.20;;;;;;;;;;6246229;23;20039;-64
2021/07/11 07:02:58;;;;;;;5.18;2.90;;;;;;;;;;6244692;23;20006;-65
2021/07/11 07:05:25;;;;;;;9.73;2.70;;;;;;;;;;6244375;23;20368;-64
2021/07/11 07:07:51;;;;;;;5.97;2.70;;;;;;;;;;6244072;23;20017;-64
2021/07/11 07:10:17;;;;;;;4.25;2.78;;;;;;;;;;6244475;23;20004;-64
2021/07/11 07:12:44;;;;;;;6.55;2.97;;;;;;;;;;6245711;23;20014;-63
2021/07/11 07:15:11;;;;;;;6.25;3.20;;;;;;;;;;6245949;23;20028;-64
2021/07/11 07:17:38;;;;;;;4.60;3.22;;;;;;;;;;6244439;23;20035;-64
2021/07/11 07:20:06;;;;;;;5.03;3.25;;;;;;;;;;6244458;23;20008;-66
2021/07/11 07:22:32;;;;;;;7.10;3.50;;;;;;;;;;6244199;23;20004;-64
2021/07/11 07:24:58;;;;;;;5.43;3.15;;;;;;;;;;6244556;23;20004;-63
2021/07/11 07:27:24;;;;;;;5.03;3.03;;;;;;;;;;6244106;23;20023;-65
2021/07/11 07:29:50;;;;;;;6.05;3.58;;;;;;;;;;6244577;23;20004;-64
2021/07/11 07:32:18;;;;;;;5.47;3.42;;;;;;;;;;6244333;23;20055;-65
2021/07/11 07:34:44;;;;;;;5.03;3.55;;;;;;;;;;6244093;23;20070;-64
2021/07/11 07:37:10;;;;;;;4.47;3.08;;;;;;;;;;6244579;23;20050;-64
2021/07/11 07:39:36;;;;;;;17.25;3.72;;;;;;;;;;6244608;23;20007;-65
2021/07/11 07:42:02;;;;;;;5.05;3.33;;;;;;;;;;6243849;23;20008;-64
2021/07/11 07:44:30;;;;;;;4.90;3.22;;;;;;;;;;6246093;23;20011;-67
2021/07/11 07:46:56;;;;;;;4.60;3.00;;;;;;;;;;6244374;23;20051;-65
2021/07/11 07:49:22;;;;;;;5.75;3.67;;;;;;;;;;6245539;23;20008;-65
2021/07/11 07:51:49;;;;;;;4.28;2.80;;;;;;;;;;6245649;23;19996;-64
2021/07/11 07:54:15;;;;;;;5.40;3.20;;;;;;;;;;6245247;23;20012;-64
2021/07/11 07:56:41;;;;;;;7.00;3.45;;;;;;;;;;6244137;23;20376;-64
2021/07/11 07:59:07;;;;;;;5.00;3.15;;;;;;;;;;6244057;23;20482;-61
2021/07/11 08:01:33;;;;;;;4.88;3.25;;;;;;;;;;6245551;23;20075;-64
2021/07/11 08:04:00;;;;;;;5.13;3.50;;;;;;;;;;6245802;23;20075;-65
2021/07/11 08:06:26;;;;;;;4.50;3.28;;;;;;;;;;6244004;23;20009;-61
2021/07/11 08:08:52;;;;;;;5.78;3.15;;;;;;;;;;6244465;23;20019;-62
2021/07/11 08:11:18;;;;;;;4.75;3.53;;;;;;;;;;6245108;23;20054;-62
2021/07/11 08:13:44;;;;;;;4.75;2.67;;;;;;;;;;6247618;23;20075;-64
2021/07/11 08:16:11;;;;;;;5.22;3.10;;;;;;;;;;6247819;23;20022;-66
2021/07/11 08:18:37;;;;;;;6.40;3.70;;;;;;;;;;6247802;23;20007;-63
2021/07/11 08:21:03;;;;;;;7.93;3.67;;;;;;;;;;6245729;23;20341;-64
2021/07/11 08:23:29;;;;;;;6.05;3.55;;;;;;;;;;6246206;23;20001;-65
2021/07/11 08:25:56;;;;;;;8.07;3.20;;;;;;;;;;6246290;23;20000;-66
2021/07/11 08:28:22;;;;;;;4.88;3.28;;;;;;;;;;6247399;23;20351;-63
2021/07/11 08:30:48;;;;;;;7.15;3.90;;;;;;;;;;6246221;23;20004;-62
2021/07/11 08:33:14;;;;;;;4.78;3.35;;;;;;;;;;6245662;23;20004;-66
2021/07/11 08:35:41;;;;;;;4.63;3.10;;;;;;;;;;6220698;23;20474;-65
2021/07/11 08:38:07;;;;;;;5.22;3.28;;;;;;;;;;6247866;23;20448;-65
2021/07/11 08:40:35;;;;;;;8.98;3.70;;;;;;;;;;6246749;23;20004;-63
2021/07/11 08:43:03;;;;;;;4.88;3.28;;;;;;;;;;6219770;23;20428;-63
2021/07/11 08:45:29;;;;;;;5.80;3.47;;;;;;;;;;6220252;23;20432;-65
2021/07/11 08:47:56;;;;;;;6.07;3.78;;;;;;;;;;6246231;23;20032;-64
2021/07/11 08:50:22;;;;;;;8.68;3.58;;;;;;;;;;6219978;23;20441;-66
2021/07/11 08:52:49;;;;;;;6.97;3.80;;;;;;;;;;6247266;23;20007;-65
2021/07/11 08:55:17;;;;;;;5.95;3.63;;;;;;;;;;6220740;23;20000;-65
2021/07/11 08:57:47;;;;;;;5.10;3.75;;;;;;;;;;6220574;23;20000;-65
2021/07/11 09:00:15;;;;;;;6.38;3.40;;;;;;;;;;6220331;23;20333;-65
2021/07/11 09:02:41;;;;;;;9.15;3.75;;;;;;;;;;6220349;23;20000;-65
2021/07/11 09:05:20;;;;;;;7.05;3.85;;;;;;;;;;6248343;23;20010;-66
2021/07/11 09:07:56;;;;;;;6.18;4.00;;;;;;;;;;6220413;23;20008;-65
2021/07/11 09:10:28;;;;;;;6.72;4.00;;;;;;;;;;6220481;23;20416;-65
2021/07/11 09:12:54;;;;;;;8.20;4.70;;;;;;;;;;6220386;23;20378;-65
2021/07/11 09:15:33;;;;;;;6.20;4.10;;;;;;;;;;6247077;23;20000;-65
2021/07/11 09:18:00;;;;;;;6.30;4.15;;;;;;;;;;6220289;23;20424;-65
2021/07/11 09:20:26;;;;;;;8.63;4.43;;;;;;;;;;6247270;23;20027;-65
2021/07/11 09:22:56;;;;;;;7.47;4.43;;;;;;;;;;6247171;23;20078;-65
2021/07/11 09:25:23;;;;;;;7.38;4.13;;;;;;;;;;6220219;23;20008;-65
2021/07/11 09:27:49;;;;;;;6.20;4.05;;;;;;;;;;6220213;23;20049;-65
2021/07/11 09:30:17;;;;;;;7.22;4.25;;;;;;;;;;6247071;23;19996;-65
2021/07/11 09:32:44;;;;;;;6.25;4.05;;;;;;;;;;6220169;23;20383;-66
2021/07/11 09:35:15;;;;;;;6.97;4.32;;;;;;;;;;6246836;23;20012;-65
2021/07/11 09:37:42;;;;;;;6.05;3.80;;;;;;;;;;6220014;23;20332;-66
2021/07/11 09:40:09;;;;;;;7.47;4.32;;;;;;;;;;6220017;23;20004;-66
2021/07/11 09:42:37;;;;;;;6.32;4.35;;;;;;;;;;6219996;23;20095;-65
2021/07/11 09:45:06;;;;;;;8.57;4.28;;;;;;;;;;6220059;23;20443;-66
2021/07/11 09:47:33;;;;;;;10.30;3.97;;;;;;;;;;6246789;23;20004;-65
2021/07/11 09:50:08;;;;;;;7.65;3.97;;;;;;;;;;6246948;23;19997;-66
2021/07/11 09:52:35;;;;;;;5.18;3.63;;;;;;;;;;6219903;23;20000;-66
2021/07/11 09:55:09;;;;;;;5.70;3.75;;;;;;;;;;6220012;23;20000;-66
2021/07/11 09:57:37;;;;;;;6.70;3.83;;;;;;;;;;6219993;23;20006;-66
2021/07/11 10:00:10;;;;;;;7.65;4.18;;;;;;;;;;6247072;23;20337;-65
2021/07/11 10:02:37;;;;;;;5.28;3.72;;;;;;;;;;6219870;23;20008;-66
2021/07/11 10:05:04;;;;;;;6.00;3.90;;;;;;;;;;6219943;23;20008;-65
2021/07/11 10:07:31;;;;;;;6.55;4.30;;;;;;;;;;6246935;23;20012;-64
2021/07/11 10:09:58;;;;;;;10.45;4.43;;;;;;;;;;6246729;23;20007;-66
2021/07/11 10:12:24;;;;;;;5.78;3.97;;;;;;;;;;6246666;23;20000;-66
2021/07/11 10:14:51;;;;;;;6.78;4.15;;;;;;;;;;6246607;23;20007;-66
2021/07/11 10:17:18;;;;;;;6.45;3.90;;;;;;;;;;6219775;23;20435;-66
2021/07/11 10:19:49;;;;;;;8.38;4.28;;;;;;;;;;6219472;23;20313;-65
2021/07/11 10:22:16;;;;;;;8.15;3.92;;;;;;;;;;6219683;23;20000;-66
2021/07/11 10:24:46;;;;;;;8.27;4.25;;;;;;;;;;6246390;23;20425;-66
2021/07/11 10:27:22;;;;;;;7.40;4.35;;;;;;;;;;6246476;23;20128;-66
2021/07/11 10:29:50;;;;;;;5.68;4.00;;;;;;;;;;6219792;23;20091;-66
2021/07/11 10:32:26;;;;;;;6.65;4.22;;;;;;;;;;6219287;23;20083;-65
2021/07/11 10:34:52;;;;;;;10.32;4.53;;;;;;;;;;6237946;23;20023;-65
2021/07/11 10:37:22;;;;;;;9.00;4.32;;;;;;;;;;6247103;23;19997;-66
2021/07/11 10:40:07;;;;;;;6.28;3.90;;;;;;;;;;6245005;23;20031;-66
2021/07/11 10:42:34;;;;;;;6.00;4.55;;;;;;;;;;6247237;23;20000;-66
2021/07/11 10:45:11;;;;;;;5.88;4.30;;;;;;;;;;6244826;23;20376;-64
2021/07/11 10:47:37;;;;;;;9.88;4.85;;;;;;;;;;6246556;23;20017;-63
2021/07/11 10:50:08;;;;;;;7.25;4.75;;;;;;;;;;6244833;23;20007;-63
2021/07/11 10:52:37;;;;;;;7.45;4.30;;;;;;;;;;6244712;23;20032;-66
2021/07/11 10:55:10;;;;;;;9.57;4.97;;;;;;;;;;6244644;23;20058;-65
2021/07/11 10:57:37;;;;;;;6.28;4.32;;;;;;;;;;6244707;23;20027;-66
2021/07/11 11:00:13;;;;;;;7.80;4.68;;;;;;;;;;6244668;23;20396;-65
2021/07/11 11:02:40;;;;;;;6.78;5.15;;;;;;;;;;6244716;23;20417;-65
2021/07/11 11:05:16;;;;;;;6.93;4.80;;;;;;;;;;6246300;23;20004;-66
2021/07/11 11:07:43;;;;;;;10.13;4.88;;;;;;;;;;6246808;23;20008;-63
2021/07/11 11:10:19;;;;;;;9.02;5.55;;;;;;;;;;6245710;23;20008;-66
2021/07/11 11:12:45;;;;;;;7.55;5.68;;;;;;;;;;6244683;23;20004;-65
2021/07/11 11:15:15;;;;;;;7.78;5.18;;;;;;;;;;6244690;23;20004;-66
2021/07/11 11:17:42;;;;;;;7.88;5.00;;;;;;;;;;6244598;23;20015;-66
2021/07/11 11:20:08;;;;;;;10.38;5.25;;;;;;;;;;6245989;23;19996;-66
2021/07/11 11:22:34;;;;;;;9.70;5.93;;;;;;;;;;6244619;23;20083;-65
2021/07/11 11:25:01;;;;;;;9.02;5.55;;;;;;;;;;6246241;23;19997;-67
2021/07/11 11:27:31;;;;;;;8.77;5.50;;;;;;;;;;6246184;23;20004;-68
2021/07/11 11:30:13;;;;;;;10.80;6.50;;;;;;;;;;6244587;23;20011;-66
2021/07/11 11:32:39;;;;;;;10.88;6.85;;;;;;;;;;6244588;23;20079;-66
2021/07/11 11:35:06;;;;;;;10.05;5.85;;;;;;;;;;6244374;23;20020;-68
2021/07/11 11:37:33;;;;;;;8.45;5.70;;;;;;;;;;6244562;23;20107;-65
2021/07/11 11:40:06;;;;;;;9.50;5.90;;;;;;;;;;6246174;23;20062;-65
2021/07/11 11:42:33;;;;;;;6.43;4.68;;;;;;;;;;6244346;23;20008;-65
2021/07/11 11:45:09;;;;;;;6.53;4.72;;;;;;;;;;6247452;23;20031;-64
2021/07/11 11:47:36;;;;;;;8.05;4.43;;;;;;;;;;6246323;23;20040;-66
2021/07/11 11:50:19;;;;;;;8.32;4.63;;;;;;;;;;6247969;23;19996;-65
2021/07/11 11:52:45;;;;;;;7.43;4.15;;;;;;;;;;6246478;23;20008;-63
2021/07/11 11:55:12;;;;;;;6.50;4.10;;;;;;;;;;6246224;23;20425;-65
2021/07/11 11:57:41;;;;;;;10.07;4.28;;;;;;;;;;6246365;23;20019;-67
2021/07/11 12:00:14;;;;;;;7.85;4.40;;;;;;;;;;6246393;23;20059;-67
2021/07/11 12:02:40;;;;;;;7.07;4.07;;;;;;;;;;6246407;23;20014;-66
2021/07/11 12:05:10;;;;;;;5.35;3.72;;;;;;;;;;6247908;23;20000;-65
2021/07/11 12:07:37;;;;;;;7.28;4.07;;;;;;;;;;6246128;23;20016;-67
2021/07/11 12:10:04;;;;;;;4.10;3.15;;;;;;;;;;6247825;23;20070;-65
2021/07/11 12:12:30;;;;;;;5.47;3.15;;;;;;;;;;6247814;23;20000;-67
2021/07/11 12:14:56;;;;;;;10.25;4.20;;;;;;;;;;6246194;23;20004;-65
2021/07/11 12:17:23;;;;;;;4.75;2.70;;;;;;;;;;6248057;23;20369;-64
2021/07/11 12:19:51;;;;;;;5.45;2.72;;;;;;;;;;6246173;23;20337;-65
2021/07/11 12:22:17;;;;;;;6.22;3.33;;;;;;;;;;6246109;23;20008;-66
2021/07/11 12:24:43;;;;;;;5.60;3.88;;;;;;;;;;6246156;23;20089;-66
2021/07/11 12:27:09;;;;;;;5.45;3.38;;;;;;;;;;6246064;23;20004;-67
2021/07/11 12:29:35;;;;;;;5.90;3.25;;;;;;;;;;6246021;23;20008;-65
2021/07/11 12:32:03;;;;;;;5.43;3.75;;;;;;;;;;6248244;23;20034;-65
2021/07/11 12:34:30;;;;;;;5.55;3.28;;;;;;;;;;6245496;23;20507;-66
2021/07/11 12:36:59;;;;;;;5.63;3.28;;;;;;;;;;6247699;23;20337;-66
2021/07/11 12:39:26;;;;;;;7.63;4.15;;;;;;;;;;6247477;23;19996;-63
2021/07/11 12:41:53;;;;;;;5.47;3.20;;;;;;;;;;6246073;23;20008;-64
2021/07/11 12:44:30;;;;;;;6.18;3.80;;;;;;;;;;6245349;23;20349;-64
2021/07/11 12:47:03;;;;;;;7.65;4.00;;;;;;;;;;6247438;23;20067;-65
2021/07/11 12:49:29;;;;;;;6.93;4.05;;;;;;;;;;6245864;23;20008;-66
2021/07/11 12:51:55;;;;;;;5.35;3.45;;;;;;;;;;6246773;23;20071;-66
2021/07/11 12:54:22;;;;;;;6.68;3.60;;;;;;;;;;6245821;23;20053;-65
2021/07/11 12:56:57;;;;;;;5.97;3.72;;;;;;;;;;6244972;23;20011;-65
2021/07/11 12:59:26;;;;;;;6.90;3.80;;;;;;;;;;6245256;23;20015;-66
2021/07/11 13:02:04;;;;;;;6.75;3.72;;;;;;;;;;6245757;23;20091;-68
2021/07/11 13:04:31;;;;;;;4.75;2.97;;;;;;;;;;6244508;23;20035;-66
2021/07/11 13:07:01;;;;;;;6.40;3.63;;;;;;;;;;6244757;23;20042;-68
2021/07/11 13:09:27;;;;;;;5.20;3.38;;;;;;;;;;6245723;23;20036;-67
2021/07/11 13:11:53;;;;;;;8.45;3.90;;;;;;;;;;6247161;23;20007;-67
2021/07/11 13:14:20;;;;;;;6.57;3.58;;;;;;;;;;6245667;23;20004;-68
2021/07/11 13:16:47;;;;;;;6.70;3.70;;;;;;;;;;6245609;23;20306;-68
2021/07/11 13:19:13;;;;;;;7.00;3.67;;;;;;;;;;6247003;23;20004;-65
2021/07/11 13:21:39;;;;;;;4.97;3.55;;;;;;;;;;6245629;23;20365;-66
2021/07/11 13:24:06;;;;;;;6.13;3.53;;;;;;;;;;6247180;23;20000;-66
2021/07/11 13:26:32;;;;;;;4.80;3.40;;;;;;;;;;6247162;23;20000;-64
2021/07/11 13:28:58;;;;;;;9.38;3.85;;;;;;;;;;6245434;23;20081;-66
2021/07/11 13:31:28;;;;;;;5.78;3.70;;;;;;;;;;6246996;23;20468;-64
2021/07/11 13:33:54;;;;;;;19.92;4.10;;;;;;;;;;6244947;23;20020;-64
2021/07/11 13:36:20;;;;;;;6.45;4.30;;;;;;;;;;6245516;23;20075;-65
2021/07/11 13:38:47;;;;;;;7.90;4.07;;;;;;;;;;6245404;23;20007;-66
2021/07/11 13:41:13;;;;;;;7.45;3.92;;;;;;;;;;6245391;23;20012;-65
2021/07/11 13:43:39;;;;;;;7.47;4.38;;;;;;;;;;6245118;23;20005;-31
2021/07/11 13:46:05;;;;;;;6.07;4.25;;;;;;;;;;6245280;23;20058;-33
2021/07/11 13:48:34;;;;;;;5.88;4.13;;;;;;;;;;6247004;23;20337;-31
2021/07/11 13:51:01;;;;;;;7.20;4.38;;;;;;;;;;6247067;23;20011;-45
2021/07/11 13:53:28;;;;;;;8.48;4.20;;;;;;;;;;6245147;23;20031;-44
2021/07/11 13:55:55;;;;;;;6.05;4.18;;;;;;;;;;6246788;23;20085;-34
2021/07/11 13:58:21;;;;;;;7.45;3.90;;;;;;;;;;6246714;23;20004;-35
2021/07/11 14:00:48;;;;;;;9.90;4.25;;;;;;;;;;6246553;23;19996;-41
2021/07/11 14:03:14;;;;;;;4.90;3.30;;;;;;;;;;6247291;23;20005;-29
2021/07/11 14:05:42;;;;;;;6.53;3.78;;;;;;;;;;6246657;23;19996;-26
2021/07/11 14:08:08;;;;;;;5.80;4.07;;;;;;;;;;6244887;23;20437;-46
2021/07/11 14:10:34;;;;;;;10.55;4.18;;;;;;;;;;6246396;23;20063;-35
2021/07/11 14:13:01;;;;;;;7.20;4.38;;;;;;;;;;6246591;23;19997;-42
2021/07/11 14:15:28;;;;;;;7.15;4.90;;;;;;;;;;6244923;23;20404;-37
2021/07/11 14:17:54;;;;;;;8.07;4.85;;;;;;;;;;6246502;23;20000;-39
2021/07/11 14:20:21;;;;;;;8.07;5.10;;;;;;;;;;6246290;23;20000;-48
2021/07/11 14:22:48;;;;;;;7.72;4.90;;;;;;;;;;6246315;23;20004;-36
2021/07/11 14:25:14;;;;;;;9.75;4.93;;;;;;;;;;6247160;23;20004;-43
2021/07/11 14:27:41;;;;;;;7.13;5.10;;;;;;;;;;6244481;23;20484;-41
2021/07/11 14:30:09;;;;;;;7.05;5.00;;;;;;;;;;6245945;23;20325;-45
2021/07/11 14:32:35;;;;;;;6.18;4.07;;;;;;;;;;6244658;23;20004;-32
2021/07/11 14:35:02;;;;;;;7.57;4.95;;;;;;;;;;6244110;23;20020;-43
2021/07/11 14:37:29;;;;;;;6.88;4.65;;;;;;;;;;6244719;23;20325;-43
2021/07/11 14:39:55;;;;;;;6.78;4.53;;;;;;;;;;6246299;23;20000;-46
2021/07/11 14:42:22;;;;;;;7.50;4.85;;;;;;;;;;6245582;23;20004;-46
2021/07/11 14:44:48;;;;;;;6.90;4.18;;;;;;;;;;6247205;23;20008;-32
2021/07/11 14:47:14;;;;;;;5.32;3.30;;;;;;;;;;6246125;23;20495;-27
2021/07/11 14:49:41;;;;;;;6.22;3.50;;;;;;;;;;6244413;23;20004;-36
2021/07/11 14:52:09;;;;;;;5.90;4.15;;;;;;;;;;6244681;23;20004;-43
2021/07/11 14:54:35;;;;;;;5.95;4.05;;;;;;;;;;6244547;23;20116;-49
2021/07/11 14:57:01;;;;;;;5.68;3.42;;;;;;;;;;6246073;23;20027;-27
2021/07/11 14:59:28;;;;;;;4.68;3.22;;;;;;;;;;6244498;23;20069;-36
2021/07/11 15:01:54;;;;;;;6.20;3.58;;;;;;;;;;6244466;23;20435;-38
2021/07/11 15:04:20;;;;;;;4.40;3.22;;;;;;;;;;6244498;23;20091;-49
2021/07/11 15:06:47;;;;;;;6.00;3.28;;;;;;;;;;6246020;23;20004;-44
2021/07/11 15:09:13;;;;;;;5.00;3.38;;;;;;;;;;6244416;23;20054;-32
2021/07/11 15:11:40;;;;;;;4.72;3.20;;;;;;;;;;6244434;23;20082;-45
2021/07/11 15:14:06;;;;;;;5.53;3.33;;;;;;;;;;6246022;23;20050;-34
2021/07/11 15:16:33;;;;;;;5.80;2.65;;;;;;;;;;6246734;23;20421;-36
2021/07/11 15:18:59;;;;;;;4.75;2.78;;;;;;;;;;6247062;23;20004;-45
2021/07/11 15:21:25;;;;;;;7.13;2.45;;;;;;;;;;6248784;23;20007;-31
2021/07/11 15:23:52;;;;;;;3.80;2.45;;;;;;;;;;6248055;23;20011;-33
2021/07/11 15:26:18;;;;;;;6.65;2.53;;;;;;;;;;6248226;23;20318;-38
2021/07/11 15:28:44;;;;;;;7.03;2.85;;;;;;;;;;6246470;23;20012;-32
2021/07/11 15:31:11;;;;;;;10.75;2.28;;;;;;;;;;6248036;23;20005;-29
2021/07/11 15:33:37;;;;;;;4.22;2.70;;;;;;;;;;6247827;23;20047;-35
2021/07/11 15:36:04;;;;;;;4.53;2.70;;;;;;;;;;6247983;23;20007;-29
2021/07/11 15:38:30;;;;;;;6.18;3.13;;;;;;;;;;6248031;23;20000;-43
2021/07/11 15:40:57;;;;;;;5.30;3.03;;;;;;;;;;6248123;23;19997;-70
2021/07/11 15:43:24;;;;;;;4.30;2.63;;;;;;;;;;6248105;23;20008;-68
2021/07/11 15:45:50;;;;;;;5.18;3.17;;;;;;;;;;6248950;23;20343;-74
2021/07/11 15:48:17;;;;;;;7.05;3.17;;;;;;;;;;6247981;23;20012;-77
2021/07/11 15:50:46;;;;;;;6.93;3.10;;;;;;;;;;6248044;23;20069;-76
2021/07/11 15:53:14;;;;;;;9.65;3.25;;;;;;;;;;6221233;23;20011;-73
2021/07/11 15:55:40;;;;;;;4.25;2.78;;;;;;;;;;6221162;23;20364;-77
2021/07/11 15:58:07;;;;;;;8.25;3.25;;;;;;;;;;6247975;23;20000;-72
2021/07/11 16:00:34;;;;;;;8.48;3.75;;;;;;;;;;6248632;23;20004;-77
2021/07/11 16:03:01;;;;;;;4.22;2.72;;;;;;;;;;6247833;23;20008;-72
2021/07/11 16:05:27;;;;;;;4.60;2.75;;;;;;;;;;6221096;23;20011;-71
2021/07/11 16:07:55;;;;;;;5.25;2.90;;;;;;;;;;6247803;23;20341;-67
2021/07/11 16:10:23;;;;;;;5.93;3.38;;;;;;;;;;6220921;23;20035;-67
2021/07/11 16:12:49;;;;;;;4.22;3.08;;;;;;;;;;6247779;23;20000;-65
2021/07/11 16:15:15;;;;;;;4.53;3.20;;;;;;;;;;6220651;23;20036;-70
2021/07/11 16:17:42;;;;;;;4.38;2.30;;;;;;;;;;6247414;23;20439;-72
2021/07/11 16:20:09;;;;;;;4.60;2.92;;;;;;;;;;6247710;23;20007;-73
2021/07/11 16:22:35;;;;;;;5.00;3.53;;;;;;;;;;6220780;23;20004;-71
2021/07/11 16:25:02;;;;;;;6.60;3.63;;;;;;;;;;6220732;23;20004;-74
2021/07/11 16:27:28;;;;;;;4.78;3.13;;;;;;;;;;6248239;23;20008;-76
2021/07/11 16:29:54;;;;;;;5.10;3.20;;;;;;;;;;6220294;23;20032;-75
2021/07/11 16:32:21;;;;;;;4.70;3.10;;;;;;;;;;6247747;23;20095;-77
2021/07/11 16:34:47;;;;;;;4.65;3.15;;;;;;;;;;6238010;23;20024;-76
2021/07/11 16:37:13;;;;;;;4.63;2.75;;;;;;;;;;6247369;23;20084;-69
2021/07/11 16:39:39;;;;;;;4.47;2.60;;;;;;;;;;6245748;23;20441;-71
2021/07/11 16:42:06;;;;;;;4.75;3.00;;;;;;;;;;6245488;23;20054;-72
2021/07/11 16:44:32;;;;;;;5.47;3.05;;;;;;;;;;6245842;23;20004;-75
2021/07/11 16:46:58;;;;;;;4.07;2.80;;;;;;;;;;6245192;23;20004;-74
2021/07/11 16:49:25;;;;;;;8.55;3.55;;;;;;;;;;6245744;23;20052;-70
2021/07/11 16:51:52;;;;;;;6.28;2.90;;;;;;;;;;6246021;23;20008;-77
2021/07/11 16:54:19;;;;;;;3.78;2.50;;;;;;;;;;6245897;23;20004;-69
2021/07/11 16:56:45;;;;;;;4.32;2.80;;;;;;;;;;6248172;23;20019;-74
2021/07/11 16:59:12;;;;;;;6.07;2.70;;;;;;;;;;6247490;23;20078;-72
2021/07/11 17:01:38;;;;;;;5.43;3.03;;;;;;;;;;6245963;23;20018;-76
2021/07/11 17:04:05;;;;;;;4.70;2.85;;;;;;;;;;6247201;23;20004;-74
2021/07/11 17:06:33;;;;;;;3.90;2.63;;;;;;;;;;6245702;23;20008;-74
2021/07/11 17:08:59;;;;;;;3.30;2.08;;;;;;;;;;6245610;23;20022;-73
2021/07/11 17:11:26;;;;;;;5.00;2.67;;;;;;;;;;6245748;23;20011;-76
2021/07/11 17:13:52;;;;;;;5.50;2.70;;;;;;;;;;6247226;23;20000;-72
2021/07/11 17:16:19;;;;;;;3.88;2.72;;;;;;;;;;6245637;23;20004;-73
2021/07/11 17:18:45;;;;;;;12.20;3.58;;;;;;;;;;6247124;23;20008;-67
2021/07/11 17:21:12;;;;;;;6.90;3.08;;;;;;;;;;6247215;23;20023;-67
2021/07/11 17:23:38;;;;;;;6.95;2.95;;;;;;;;;;6247502;23;20008;-74
2021/07/11 17:26:05;;;;;;;4.32;2.75;;;;;;;;;;6245544;23;20004;-74
2021/07/11 17:28:31;;;;;;;5.00;3.47;;;;;;;;;;6247185;23;20008;-76
2021/07/11 17:30:57;;;;;;;4.68;3.33;;;;;;;;;;6247037;23;20024;-71
2021/07/11 17:33:24;;;;;;;4.95;2.90;;;;;;;;;;6246765;23;20062;-72
2021/07/11 17:35:50;;;;;;;5.40;3.70;;;;;;;;;;6247075;23;20373;-75
2021/07/11 17:38:16;;;;;;;5.10;2.90;;;;;;;;;;6247021;23;20000;-75
2021/07/11 17:40:43;;;;;;;7.65;3.65;;;;;;;;;;6247720;23;20008;-75
2021/07/11 17:43:09;;;;;;;5.07;3.55;;;;;;;;;;6246785;23;19996;-75
2021/07/11 17:45:36;;;;;;;7.55;3.53;;;;;;;;;;6220065;23;20012;-76
2021/07/11 17:48:03;;;;;;;5.13;3.50;;;;;;;;;;6194498;23;20476;-75
2021/07/11 17:50:29;;;;;;;5.70;4.22;;;;;;;;;;6219398;23;20050;-76
2021/07/11 17:52:55;;;;;;;6.95;3.80;;;;;;;;;;6219858;23;20004;-75
2021/07/11 17:55:21;;;;;;;6.20;3.88;;;;;;;;;;6219763;23;20374;-76
2021/07/11 17:57:47;;;;;;;7.18;4.20;;;;;;;;;;6219770;23;20057;-77
2021/07/11 18:00:14;;;;;;;6.28;4.13;;;;;;;;;;6220001;23;20146;-77
2021/07/11 18:02:41;;;;;;;6.68;3.95;;;;;;;;;;6219821;23;20483;-73
2021/07/11 18:05:08;;;;;;;5.72;4.10;;;;;;;;;;6219810;23;20019;-74
2021/07/11 18:07:35;;;;;;;6.78;4.28;;;;;;;;;;6246615;23;20321;-73
2021/07/11 18:10:01;;;;;;;6.85;3.88;;;;;;;;;;6246580;23;20027;-73
2021/07/11 18:12:27;;;;;;;7.03;4.15;;;;;;;;;;6219776;23;20421;-73
2021/07/11 18:14:53;;;;;;;8.15;4.28;;;;;;;;;;6219741;23;20020;-75
2021/07/11 18:17:19;;;;;;;7.05;4.18;;;;;;;;;;6246624;23;20004;-73
2021/07/11 18:19:45;;;;;;;7.13;4.35;;;;;;;;;;6246338;23;20004;-73
2021/07/11 18:22:12;;;;;;;5.75;4.28;;;;;;;;;;6246526;23;20372;-75
2021/07/11 18:24:38;;;;;;;7.75;4.28;;;;;;;;;;6246556;23;20075;-76
2021/07/11 18:27:04;;;;;;;8.15;4.53;;;;;;;;;;6219686;23;20000;-76
2021/07/11 18:29:31;;;;;;;7.32;4.43;;;;;;;;;;6219471;23;20066;-74
2021/07/11 18:31:57;;;;;;;6.72;4.22;;;;;;;;;;6246458;23;20023;-76
2021/07/11 18:34:27;;;;;;;8.02;4.35;;;;;;;;;;6231844;23;20020;-73
2021/07/11 18:36:54;;;;;;;8.23;4.95;;;;;;;;;;6246761;23;20027;-73
2021/07/11 18:39:21;;;;;;;9.68;5.40;;;;;;;;;;6246359;23;20350;-73
2021/07/11 18:41:47;;;;;;;9.20;5.50;;;;;;;;;;6246586;23;20070;-74
2021/07/11 18:44:14;;;;;;;7.80;4.78;;;;;;;;;;6246580;23;20011;-73
2021/07/11 18:46:40;;;;;;;8.98;4.93;;;;;;;;;;6246343;23;20008;-74
2021/07/11 18:49:06;;;;;;;7.72;4.93;;;;;;;;;;6246194;23;20012;-74
2021/07/11 18:51:33;;;;;;;9.63;4.93;;;;;;;;;;6246137;23;20068;-74
2021/07/11 18:53:59;;;;;;;7.78;5.05;;;;;;;;;;6246429;23;20006;-74
2021/07/11 18:56:25;;;;;;;7.85;5.45;;;;;;;;;;6246786;23;20429;-74
2021/07/11 18:58:52;;;;;;;7.45;5.60;;;;;;;;;;6246252;23;20055;-74
2021/07/11 19:01:18;;;;;;;9.65;5.43;;;;;;;;;;6246205;23;20004;-74
2021/07/11 19:03:44;;;;;;;12.30;6.03;;;;;;;;;;6246108;23;20337;-74
2021/07/11 19:06:10;;;;;;;9.40;5.57;;;;;;;;;;6245984;23;20428;-74
2021/07/11 19:08:36;;;;;;;10.77;6.07;;;;;;;;;;6246334;23;20012;-73
2021/07/11 19:11:03;;;;;;;9.52;6.40;;;;;;;;;;6246169;23;20453;-73
2021/07/11 19:13:30;;;;;;;10.50;6.13;;;;;;;;;;6245940;23;20004;-73
2021/07/11 19:15:56;;;;;;;9.90;6.03;;;;;;;;;;6246115;23;20000;-73
2021/07/11 19:18:22;;;;;;;10.48;6.28;;;;;;;;;;6246179;23;20011;-75
2021/07/11 19:20:48;;;;;;;11.15;6.50;;;;;;;;;;6246259;23;19996;-76
2021/07/11 19:23:15;;;;;;;11.90;6.15;;;;;;;;;;6246141;23;20000;-77
2021/07/11 19:25:41;;;;;;;7.97;5.53;;;;;;;;;;6246174;23;20422;-76
2021/07/11 19:28:08;;;;;;;9.45;5.80;;;;;;;;;;6246294;23;20091;-77
2021/07/11 19:30:36;;;;;;;8.95;5.60;;;;;;;;;;6246394;23;20011;-76
2021/07/11 19:33:04;;;;;;;7.90;5.25;;;;;;;;;;6246149;23;20000;-78
2021/07/11 19:35:30;;;;;;;6.10;4.45;;;;;;;;;;6245973;23;20011;-74
2021/07/11 19:37:57;;;;;;;12.90;5.07;;;;;;;;;;6246075;23;20004;-73
2021/07/11 19:40:25;;;;;;;8.93;4.95;;;;;;;;;;6246275;23;20069;-75
2021/07/11 19:42:52;;;;;;;8.23;5.10;;;;;;;;;;6219232;23;20008;-78
2021/07/11 19:45:18;;;;;;;9.63;4.53;;;;;;;;;;6246432;23;20012;-78
2021/07/11 19:47:44;;;;;;;9.70;4.97;;;;;;;;;;6246157;23;20026;-78
2021/07/11 19:50:12;;;;;;;10.98;4.28;;;;;;;;;;6245664;23;20064;-78
2021/07/11 19:52:39;;;;;;;7.32;4.72;;;;;;;;;;6218846;23;20012;-77
2021/07/11 19:55:07;;;;;;;9.52;4.95;;;;;;;;;;6245806;23;20081;-79
2021/07/11 19:57:34;;;;;;;8.38;4.63;;;;;;;;;;6245904;23;20071;-78
2021/07/11 20:00:00;;;;;;;6.78;4.85;;;;;;;;;;6245969;23;20433;-79
2021/07/11 20:02:26;;;;;;;6.90;4.72;;;;;;;;;;6246316;23;20004;-77
2021/07/11 20:04:53;;;;;;;8.88;5.75;;;;;;;;;;6218934;23;20380;-78
2021/07/11 20:07:21;;;;;;;9.82;5.30;;;;;;;;;;6247106;23;19996;-70
2021/07/11 20:09:47;;;;;;;8.15;5.10;;;;;;;;;;6247257;23;20004;-74
2021/07/11 20:12:17;;;;;;;7.13;5.13;;;;;;;;;;6247788;23;20005;-79
2021/07/11 20:14:43;;;;;;;11.82;5.70;;;;;;;;;;6220878;23;20012;-74
2021/07/11 20:17:10;;;;;;;8.13;5.75;;;;;;;;;;6247707;23;19996;-70
2021/07/11 20:19:37;;;;;;;11.93;5.43;;;;;;;;;;6247624;23;19997;-75
2021/07/11 20:22:03;;;;;;;8.80;5.90;;;;;;;;;;6248031;23;20008;-76
2021/07/11 20:24:30;;;;;;;9.40;5.80;;;;;;;;;;6248070;23;20059;-75
2021/07/11 20:26:57;;;;;;;9.18;5.43;;;;;;;;;;6247861;23;20004;-76
2021/07/11 20:29:25;;;;;;;9.18;5.32;;;;;;;;;;6247730;23;20019;-78
2021/07/11 20:31:52;;;;;;;6.88;5.22;;;;;;;;;;6247638;23;20448;-76
2021/07/11 20:34:18;;;;;;;10.65;5.82;;;;;;;;;;6246797;23;20465;-76
2021/07/11 20:36:45;;;;;;;16.02;4.93;;;;;;;;;;6247643;23;20000;-75
2021/07/11 20:39:11;;;;;;;6.63;3.83;;;;;;;;;;6247621;23;20027;-78
2021/07/11 20:41:37;;;;;;;4.30;2.97;;;;;;;;;;6246553;23;19996;-77
2021/07/11 20:44:03;;;;;;;8.02;3.53;;;;;;;;;;6247747;23;20015;-77
2021/07/11 20:46:30;;;;;;;5.85;3.25;;;;;;;;;;6247917;23;20003;-71
2021/07/11 20:48:56;;;;;;;6.50;3.30;;;;;;;;;;6247244;23;20012;-71
2021/07/11 20:51:22;;;;;;;4.40;2.92;;;;;;;;;;6247522;23;20007;-79
2021/07/11 20:53:49;;;;;;;4.47;3.13;;;;;;;;;;6247444;23;20076;-75
2021/07/11 20:56:16;;;;;;;7.20;2.83;;;;;;;;;;6247447;23;20003;-78
2021/07/11 20:58:47;;;;;;;5.53;2.55;;;;;;;;;;6246894;23;20008;-79
2021/07/11 21:01:14;;;;;;;3.78;2.55;;;;;;;;;;6246031;23;20449;-71
2021/07/11 21:03:40;;;;;;;3.35;2.05;;;;;;;;;;6218995;23;20004;-72
2021/07/11 21:06:06;;;;;;;3.33;2.10;;;;;;;;;;6246006;23;19996;-74
2021/07/11 21:08:32;;;;;;;4.25;2.15;;;;;;;;;;6247148;23;20018;-78
2021/07/11 21:10:58;;;;;;;4.40;1.85;;;;;;;;;;6220443;23;20307;-78
2021/07/11 21:13:25;;;;;;;4.82;2.28;;;;;;;;;;6247201;23;20066;-78
2021/07/11 21:15:51;;;;;;;3.63;2.03;;;;;;;;;;6247411;23;20318;-78